sensor_id;sensor_type;location;lat;lon;timestamp;P1;durP1;ratioP1;P2;durP2;ratioP2
20026;SDS011;10174;42.688;23.344;2023-03-05T00:00:49;66.32;;;25.48;;
20026;SDS011;10174;42.688;23.344;2023-03-05T00:03:14;57.75;;;23.95;;
20026;SDS011;10174;42.688;23.344;2023-03-05T00:05:40;54.00;;;23.75;;
20026;SDS011;10174;42.688;23.344;2023-03-05T00:08:05;53.13;;;22.92;;
20026;SDS011;10174;42.688;23.344;2023-03-05T00:10:30;57.17;;;23.50;;
20026;SDS011;10174;42.688;23.344;2023-03-05T00:12:56;59.60;;;25.55;;
20026;SDS011;10174;42.688;23.344;2023-03-05T00:15:21;60.80;;;24.75;;
20026;SDS011;10174;42.688;23.344;2023-03-05T00:17:47;49.20;;;23.85;;
20026;SDS011;10174;42.688;23.344;2023-03-05T00:20:12;57.63;;;25.10;;
20026;SDS011;10174;42.688;23.344;2023-03-05T00:22:38;51.28;;;23.15;;
20026;SDS011;10174;42.688;23.344;2023-03-05T00:25:03;54.97;;;23.60;;
20026;SDS011;10174;42.688;23.344;2023-03-05T00:27:29;55.38;;;23.77;;
20026;SDS011;10174;42.688;23.344;2023-03-05T00:29:55;52.33;;;23.23;;
20026;SDS011;10174;42.688;23.344;2023-03-05T00:32:20;53.63;;;23.42;;
20026;SDS011;10174;42.688;23.344;2023-03-05T00:34:46;51.35;;;22.85;;
20026;SDS011;10174;42.688;23.344;2023-03-05T00:37:13;51.33;;;24.13;;
20026;SDS011;10174;42.688;23.344;2023-03-05T00:39:39;59.58;;;24.63;;
20026;SDS011;10174;42.688;23.344;2023-03-05T00:42:04;61.63;;;24.50;;
20026;SDS011;10174;42.688;23.344;2023-03-05T00:44:30;66.30;;;23.25;;
20026;SDS011;10174;42.688;23.344;2023-03-05T00:46:55;58.03;;;24.17;;
20026;SDS011;10174;42.688;23.344;2023-03-05T00:49:21;53.63;;;24.15;;
20026;SDS011;10174;42.688;23.344;2023-03-05T00:51:46;59.05;;;24.30;;
20026;SDS011;10174;42.688;23.344;2023-03-05T00:54:11;54.72;;;24.20;;
20026;SDS011;10174;42.688;23.344;2023-03-05T00:56:37;56.47;;;22.27;;
20026;SDS011;10174;42.688;23.344;2023-03-05T00:59:02;59.58;;;24.58;;
20026;SDS011;10174;42.688;23.344;2023-03-05T01:01:28;56.35;;;22.85;;
20026;SDS011;10174;42.688;23.344;2023-03-05T01:03:54;56.85;;;23.45;;
20026;SDS011;10174;42.688;23.344;2023-03-05T01:06:21;50.00;;;22.65;;
20026;SDS011;10174;42.688;23.344;2023-03-05T01:08:46;46.65;;;21.92;;
20026;SDS011;10174;42.688;23.344;2023-03-05T01:11:12;50.42;;;23.13;;
20026;SDS011;10174;42.688;23.344;2023-03-05T01:13:38;51.30;;;22.15;;
20026;SDS011;10174;42.688;23.344;2023-03-05T01:16:04;49.63;;;21.38;;
20026;SDS011;10174;42.688;23.344;2023-03-05T01:18:30;56.78;;;23.15;;
20026;SDS011;10174;42.688;23.344;2023-03-05T01:20:55;51.67;;;23.20;;
20026;SDS011;10174;42.688;23.344;2023-03-05T01:23:21;50.97;;;22.25;;
20026;SDS011;10174;42.688;23.344;2023-03-05T01:25:53;54.10;;;21.13;;
20026;SDS011;10174;42.688;23.344;2023-03-05T01:28:19;75.53;;;31.73;;
20026;SDS011;10174;42.688;23.344;2023-03-05T01:30:45;49.53;;;21.73;;
20026;SDS011;10174;42.688;23.344;2023-03-05T01:33:10;52.65;;;23.45;;
20026;SDS011;10174;42.688;23.344;2023-03-05T01:35:35;51.00;;;21.92;;
20026;SDS011;10174;42.688;23.344;2023-03-05T01:38:01;49.08;;;20.73;;
20026;SDS011;10174;42.688;23.344;2023-03-05T01:40:27;45.50;;;21.23;;
20026;SDS011;10174;42.688;23.344;2023-03-05T01:43:07;46.90;;;20.75;;
20026;SDS011;10174;42.688;23.344;2023-03-05T01:48:49;49.10;;;22.60;;
20026;SDS011;10174;42.688;23.344;2023-03-05T01:51:18;52.67;;;22.27;;
20026;SDS011;10174;42.688;23.344;2023-03-05T01:53:46;51.92;;;22.02;;
20026;SDS011;10174;42.688;23.344;2023-03-05T01:56:12;53.60;;;22.15;;
20026;SDS011;10174;42.688;23.344;2023-03-05T01:58:38;50.25;;;21.27;;
20026;SDS011;10174;42.688;23.344;2023-03-05T02:01:04;55.08;;;22.23;;
20026;SDS011;10174;42.688;23.344;2023-03-05T02:03:30;49.67;;;21.48;;
20026;SDS011;10174;42.688;23.344;2023-03-05T02:05:57;56.78;;;21.88;;
20026;SDS011;10174;42.688;23.344;2023-03-05T02:08:22;45.50;;;20.38;;
20026;SDS011;10174;42.688;23.344;2023-03-05T02:10:48;51.10;;;22.15;;
20026;SDS011;10174;42.688;23.344;2023-03-05T02:13:18;55.10;;;23.23;;
20026;SDS011;10174;42.688;23.344;2023-03-05T02:15:46;43.65;;;20.05;;
20026;SDS011;10174;42.688;23.344;2023-03-05T02:18:14;52.08;;;22.23;;
20026;SDS011;10174;42.688;23.344;2023-03-05T02:20:46;50.25;;;21.60;;
20026;SDS011;10174;42.688;23.344;2023-03-05T02:23:22;49.35;;;19.95;;
20026;SDS011;10174;42.688;23.344;2023-03-05T02:25:50;47.95;;;20.65;;
20026;SDS011;10174;42.688;23.344;2023-03-05T02:28:23;44.78;;;20.80;;
20026;SDS011;10174;42.688;23.344;2023-03-05T02:30:52;48.35;;;20.58;;
20026;SDS011;10174;42.688;23.344;2023-03-05T02:33:18;55.42;;;21.90;;
20026;SDS011;10174;42.688;23.344;2023-03-05T02:35:44;50.13;;;21.35;;
20026;SDS011;10174;42.688;23.344;2023-03-05T02:38:13;55.15;;;20.67;;
20026;SDS011;10174;42.688;23.344;2023-03-05T02:40:40;51.70;;;22.30;;
20026;SDS011;10174;42.688;23.344;2023-03-05T02:43:05;50.97;;;21.35;;
20026;SDS011;10174;42.688;23.344;2023-03-05T02:45:31;52.78;;;22.85;;
20026;SDS011;10174;42.688;23.344;2023-03-05T02:47:56;51.55;;;20.92;;
20026;SDS011;10174;42.688;23.344;2023-03-05T02:50:22;57.58;;;22.45;;
20026;SDS011;10174;42.688;23.344;2023-03-05T02:52:48;45.50;;;20.95;;
20026;SDS011;10174;42.688;23.344;2023-03-05T02:55:14;55.33;;;23.45;;
20026;SDS011;10174;42.688;23.344;2023-03-05T02:57:40;57.30;;;23.77;;
20026;SDS011;10174;42.688;23.344;2023-03-05T03:00:05;60.33;;;24.55;;
20026;SDS011;10174;42.688;23.344;2023-03-05T03:02:31;58.30;;;23.25;;
20026;SDS011;10174;42.688;23.344;2023-03-05T03:04:56;59.65;;;24.35;;
20026;SDS011;10174;42.688;23.344;2023-03-05T03:07:22;63.75;;;25.08;;
20026;SDS011;10174;42.688;23.344;2023-03-05T03:09:47;63.55;;;26.73;;
20026;SDS011;10174;42.688;23.344;2023-03-05T03:12:13;63.65;;;26.52;;
20026;SDS011;10174;42.688;23.344;2023-03-05T03:14:39;67.90;;;25.65;;
20026;SDS011;10174;42.688;23.344;2023-03-05T03:17:16;62.17;;;25.45;;
20026;SDS011;10174;42.688;23.344;2023-03-05T03:19:42;63.00;;;24.98;;
20026;SDS011;10174;42.688;23.344;2023-03-05T03:22:09;60.78;;;24.90;;
20026;SDS011;10174;42.688;23.344;2023-03-05T03:24:35;68.35;;;26.70;;
20026;SDS011;10174;42.688;23.344;2023-03-05T03:27:02;63.25;;;26.13;;
20026;SDS011;10174;42.688;23.344;2023-03-05T03:29:28;61.22;;;25.33;;
20026;SDS011;10174;42.688;23.344;2023-03-05T03:31:54;60.22;;;23.63;;
20026;SDS011;10174;42.688;23.344;2023-03-05T03:34:19;68.22;;;26.10;;
20026;SDS011;10174;42.688;23.344;2023-03-05T03:36:46;62.95;;;27.05;;
20026;SDS011;10174;42.688;23.344;2023-03-05T03:39:13;63.00;;;26.20;;
20026;SDS011;10174;42.688;23.344;2023-03-05T03:41:46;65.03;;;26.58;;
20026;SDS011;10174;42.688;23.344;2023-03-05T03:44:13;62.17;;;25.63;;
20026;SDS011;10174;42.688;23.344;2023-03-05T03:46:42;69.05;;;27.17;;
20026;SDS011;10174;42.688;23.344;2023-03-05T03:49:11;63.58;;;26.65;;
20026;SDS011;10174;42.688;23.344;2023-03-05T03:51:40;61.40;;;26.02;;
20026;SDS011;10174;42.688;23.344;2023-03-05T03:54:05;73.68;;;27.65;;
20026;SDS011;10174;42.688;23.344;2023-03-05T03:56:31;64.65;;;28.45;;
20026;SDS011;10174;42.688;23.344;2023-03-05T03:58:56;62.97;;;25.48;;
20026;SDS011;10174;42.688;23.344;2023-03-05T04:01:22;67.22;;;26.42;;
20026;SDS011;10174;42.688;23.344;2023-03-05T04:03:47;57.58;;;25.50;;
20026;SDS011;10174;42.688;23.344;2023-03-05T04:06:12;64.30;;;26.33;;
20026;SDS011;10174;42.688;23.344;2023-03-05T04:08:38;65.90;;;27.00;;
20026;SDS011;10174;42.688;23.344;2023-03-05T04:11:04;61.22;;;25.35;;
20026;SDS011;10174;42.688;23.344;2023-03-05T04:13:30;63.45;;;25.63;;
20026;SDS011;10174;42.688;23.344;2023-03-05T04:15:55;60.55;;;25.38;;
20026;SDS011;10174;42.688;23.344;2023-03-05T04:18:21;62.63;;;25.80;;
20026;SDS011;10174;42.688;23.344;2023-03-05T04:20:46;63.67;;;25.70;;
20026;SDS011;10174;42.688;23.344;2023-03-05T04:23:12;61.10;;;24.65;;
20026;SDS011;10174;42.688;23.344;2023-03-05T04:25:38;59.50;;;25.90;;
20026;SDS011;10174;42.688;23.344;2023-03-05T04:28:03;67.22;;;25.25;;
20026;SDS011;10174;42.688;23.344;2023-03-05T04:30:29;68.95;;;27.17;;
20026;SDS011;10174;42.688;23.344;2023-03-05T04:32:55;64.82;;;26.95;;
20026;SDS011;10174;42.688;23.344;2023-03-05T04:35:21;68.90;;;26.98;;
20026;SDS011;10174;42.688;23.344;2023-03-05T04:37:46;70.90;;;26.10;;
20026;SDS011;10174;42.688;23.344;2023-03-05T04:40:12;62.28;;;25.27;;
20026;SDS011;10174;42.688;23.344;2023-03-05T04:42:37;73.55;;;25.92;;
20026;SDS011;10174;42.688;23.344;2023-03-05T04:45:03;70.32;;;26.77;;
20026;SDS011;10174;42.688;23.344;2023-03-05T04:47:30;65.03;;;25.13;;
20026;SDS011;10174;42.688;23.344;2023-03-05T04:49:56;68.47;;;27.05;;
20026;SDS011;10174;42.688;23.344;2023-03-05T04:52:21;69.07;;;25.42;;
20026;SDS011;10174;42.688;23.344;2023-03-05T04:54:47;73.90;;;26.50;;
20026;SDS011;10174;42.688;23.344;2023-03-05T04:57:12;62.20;;;27.02;;
20026;SDS011;10174;42.688;23.344;2023-03-05T04:59:38;62.63;;;26.00;;
20026;SDS011;10174;42.688;23.344;2023-03-05T05:02:03;63.22;;;25.73;;
20026;SDS011;10174;42.688;23.344;2023-03-05T05:04:29;66.78;;;26.65;;
20026;SDS011;10174;42.688;23.344;2023-03-05T05:06:55;67.78;;;28.38;;
20026;SDS011;10174;42.688;23.344;2023-03-05T05:09:21;67.88;;;25.92;;
20026;SDS011;10174;42.688;23.344;2023-03-05T05:11:47;65.07;;;27.05;;
20026;SDS011;10174;42.688;23.344;2023-03-05T05:14:12;71.65;;;26.92;;
20026;SDS011;10174;42.688;23.344;2023-03-05T05:16:37;63.08;;;25.27;;
20026;SDS011;10174;42.688;23.344;2023-03-05T05:19:03;69.90;;;25.92;;
20026;SDS011;10174;42.688;23.344;2023-03-05T05:21:28;56.53;;;22.77;;
20026;SDS011;10174;42.688;23.344;2023-03-05T05:23:54;60.60;;;23.00;;
20026;SDS011;10174;42.688;23.344;2023-03-05T05:26:19;71.55;;;25.55;;
20026;SDS011;10174;42.688;23.344;2023-03-05T05:28:44;60.53;;;24.35;;
20026;SDS011;10174;42.688;23.344;2023-03-05T05:31:11;73.57;;;25.48;;
20026;SDS011;10174;42.688;23.344;2023-03-05T05:33:38;61.50;;;24.45;;
20026;SDS011;10174;42.688;23.344;2023-03-05T05:36:06;68.90;;;26.08;;
20026;SDS011;10174;42.688;23.344;2023-03-05T05:38:33;59.28;;;24.13;;
20026;SDS011;10174;42.688;23.344;2023-03-05T05:41:07;64.80;;;23.88;;
20026;SDS011;10174;42.688;23.344;2023-03-05T05:43:34;59.58;;;23.52;;
20026;SDS011;10174;42.688;23.344;2023-03-05T05:46:01;59.53;;;22.98;;
20026;SDS011;10174;42.688;23.344;2023-03-05T05:48:28;59.35;;;24.00;;
20026;SDS011;10174;42.688;23.344;2023-03-05T05:50:54;57.28;;;23.75;;
20026;SDS011;10174;42.688;23.344;2023-03-05T05:53:20;62.60;;;22.52;;
20026;SDS011;10174;42.688;23.344;2023-03-05T05:55:45;63.20;;;23.55;;
20026;SDS011;10174;42.688;23.344;2023-03-05T05:58:11;64.75;;;23.52;;
20026;SDS011;10174;42.688;23.344;2023-03-05T06:00:36;65.20;;;24.52;;
20026;SDS011;10174;42.688;23.344;2023-03-05T06:03:02;66.05;;;24.13;;
20026;SDS011;10174;42.688;23.344;2023-03-05T06:05:28;60.58;;;22.30;;
20026;SDS011;10174;42.688;23.344;2023-03-05T06:07:53;50.88;;;21.45;;
20026;SDS011;10174;42.688;23.344;2023-03-05T06:10:19;48.55;;;20.52;;
20026;SDS011;10174;42.688;23.344;2023-03-05T06:12:44;52.53;;;23.30;;
20026;SDS011;10174;42.688;23.344;2023-03-05T06:15:10;56.65;;;22.30;;
20026;SDS011;10174;42.688;23.344;2023-03-05T06:17:35;54.15;;;21.73;;
20026;SDS011;10174;42.688;23.344;2023-03-05T06:20:01;48.15;;;20.17;;
20026;SDS011;10174;42.688;23.344;2023-03-05T06:22:26;53.35;;;21.15;;
20026;SDS011;10174;42.688;23.344;2023-03-05T06:24:52;46.35;;;19.73;;
20026;SDS011;10174;42.688;23.344;2023-03-05T06:27:17;59.90;;;21.50;;
20026;SDS011;10174;42.688;23.344;2023-03-05T06:29:42;48.30;;;20.02;;
20026;SDS011;10174;42.688;23.344;2023-03-05T06:32:08;51.10;;;20.70;;
20026;SDS011;10174;42.688;23.344;2023-03-05T06:34:33;49.00;;;20.77;;
20026;SDS011;10174;42.688;23.344;2023-03-05T06:36:59;50.67;;;19.17;;
20026;SDS011;10174;42.688;23.344;2023-03-05T06:39:25;45.50;;;20.13;;
20026;SDS011;10174;42.688;23.344;2023-03-05T06:41:50;52.25;;;20.33;;
20026;SDS011;10174;42.688;23.344;2023-03-05T06:44:16;49.47;;;19.90;;
20026;SDS011;10174;42.688;23.344;2023-03-05T06:46:41;50.15;;;19.05;;
20026;SDS011;10174;42.688;23.344;2023-03-05T06:49:07;47.25;;;19.15;;
20026;SDS011;10174;42.688;23.344;2023-03-05T06:51:34;52.92;;;20.80;;
20026;SDS011;10174;42.688;23.344;2023-03-05T06:54:02;57.40;;;22.25;;
20026;SDS011;10174;42.688;23.344;2023-03-05T06:56:36;48.90;;;21.35;;
20026;SDS011;10174;42.688;23.344;2023-03-05T06:59:03;50.97;;;20.75;;
20026;SDS011;10174;42.688;23.344;2023-03-05T07:01:29;55.25;;;21.60;;
20026;SDS011;10174;42.688;23.344;2023-03-05T07:03:55;49.38;;;20.38;;
20026;SDS011;10174;42.688;23.344;2023-03-05T07:06:23;48.50;;;20.05;;
20026;SDS011;10174;42.688;23.344;2023-03-05T07:08:49;48.50;;;21.10;;
20026;SDS011;10174;42.688;23.344;2023-03-05T07:11:15;51.05;;;21.20;;
20026;SDS011;10174;42.688;23.344;2023-03-05T07:13:43;53.88;;;21.05;;
20026;SDS011;10174;42.688;23.344;2023-03-05T07:16:15;53.15;;;21.80;;
20026;SDS011;10174;42.688;23.344;2023-03-05T07:18:46;49.15;;;19.75;;
20026;SDS011;10174;42.688;23.344;2023-03-05T07:21:14;57.30;;;23.02;;
20026;SDS011;10174;42.688;23.344;2023-03-05T07:23:41;48.70;;;20.23;;
20026;SDS011;10174;42.688;23.344;2023-03-05T07:26:07;58.25;;;22.35;;
20026;SDS011;10174;42.688;23.344;2023-03-05T07:28:32;53.75;;;21.95;;
20026;SDS011;10174;42.688;23.344;2023-03-05T07:31:00;61.45;;;22.27;;
20026;SDS011;10174;42.688;23.344;2023-03-05T07:33:29;61.35;;;22.30;;
20026;SDS011;10174;42.688;23.344;2023-03-05T07:35:56;51.53;;;23.67;;
20026;SDS011;10174;42.688;23.344;2023-03-05T07:38:21;46.33;;;21.70;;
20026;SDS011;10174;42.688;23.344;2023-03-05T07:40:47;55.17;;;22.95;;
20026;SDS011;10174;42.688;23.344;2023-03-05T07:43:13;52.83;;;22.75;;
20026;SDS011;10174;42.688;23.344;2023-03-05T07:45:39;59.75;;;23.98;;
20026;SDS011;10174;42.688;23.344;2023-03-05T07:48:11;53.25;;;21.60;;
20026;SDS011;10174;42.688;23.344;2023-03-05T07:50:38;66.50;;;24.00;;
20026;SDS011;10174;42.688;23.344;2023-03-05T07:53:03;62.70;;;24.92;;
20026;SDS011;10174;42.688;23.344;2023-03-05T07:55:28;52.45;;;24.23;;
20026;SDS011;10174;42.688;23.344;2023-03-05T07:57:54;55.97;;;22.88;;
20026;SDS011;10174;42.688;23.344;2023-03-05T08:00:20;58.55;;;24.25;;
20026;SDS011;10174;42.688;23.344;2023-03-05T08:02:45;65.65;;;24.70;;
20026;SDS011;10174;42.688;23.344;2023-03-05T08:05:12;63.10;;;24.85;;
20026;SDS011;10174;42.688;23.344;2023-03-05T08:07:38;68.10;;;26.10;;
20026;SDS011;10174;42.688;23.344;2023-03-05T08:10:03;60.90;;;25.55;;
20026;SDS011;10174;42.688;23.344;2023-03-05T08:12:29;64.75;;;25.48;;
20026;SDS011;10174;42.688;23.344;2023-03-05T08:14:55;67.55;;;25.77;;
20026;SDS011;10174;42.688;23.344;2023-03-05T08:17:20;64.55;;;25.55;;
20026;SDS011;10174;42.688;23.344;2023-03-05T08:19:45;59.20;;;23.90;;
20026;SDS011;10174;42.688;23.344;2023-03-05T08:22:11;65.38;;;26.48;;
20026;SDS011;10174;42.688;23.344;2023-03-05T08:24:36;66.75;;;26.35;;
20026;SDS011;10174;42.688;23.344;2023-03-05T08:27:02;63.70;;;25.33;;
20026;SDS011;10174;42.688;23.344;2023-03-05T08:29:27;59.00;;;25.42;;
20026;SDS011;10174;42.688;23.344;2023-03-05T08:31:53;60.95;;;25.85;;
20026;SDS011;10174;42.688;23.344;2023-03-05T08:34:21;66.00;;;25.05;;
20026;SDS011;10174;42.688;23.344;2023-03-05T08:36:47;58.67;;;24.58;;
20026;SDS011;10174;42.688;23.344;2023-03-05T08:39:13;63.70;;;25.25;;
20026;SDS011;10174;42.688;23.344;2023-03-05T08:41:38;71.03;;;27.25;;
20026;SDS011;10174;42.688;23.344;2023-03-05T08:44:04;61.80;;;26.98;;
20026;SDS011;10174;42.688;23.344;2023-03-05T08:46:29;57.35;;;25.48;;
20026;SDS011;10174;42.688;23.344;2023-03-05T08:48:54;57.85;;;25.85;;
20026;SDS011;10174;42.688;23.344;2023-03-05T08:51:22;59.83;;;25.88;;
20026;SDS011;10174;42.688;23.344;2023-03-05T08:53:52;60.40;;;24.88;;
20026;SDS011;10174;42.688;23.344;2023-03-05T08:56:19;58.78;;;24.95;;
20026;SDS011;10174;42.688;23.344;2023-03-05T08:58:44;60.97;;;26.67;;
20026;SDS011;10174;42.688;23.344;2023-03-05T09:01:11;61.45;;;25.70;;
20026;SDS011;10174;42.688;23.344;2023-03-05T09:03:38;61.50;;;25.30;;
20026;SDS011;10174;42.688;23.344;2023-03-05T09:06:05;54.65;;;25.00;;
20026;SDS011;10174;42.688;23.344;2023-03-05T09:08:33;63.80;;;24.77;;
20026;SDS011;10174;42.688;23.344;2023-03-05T09:11:03;55.85;;;23.52;;
20026;SDS011;10174;42.688;23.344;2023-03-05T09:13:30;54.85;;;23.17;;
20026;SDS011;10174;42.688;23.344;2023-03-05T09:16:00;54.53;;;25.13;;
20026;SDS011;10174;42.688;23.344;2023-03-05T09:18:30;54.83;;;25.60;;
20026;SDS011;10174;42.688;23.344;2023-03-05T09:20:55;54.42;;;23.58;;
20026;SDS011;10174;42.688;23.344;2023-03-05T09:23:21;48.75;;;22.40;;
20026;SDS011;10174;42.688;23.344;2023-03-05T09:25:48;52.10;;;24.23;;
20026;SDS011;10174;42.688;23.344;2023-03-05T09:28:14;56.65;;;24.38;;
20026;SDS011;10174;42.688;23.344;2023-03-05T09:30:39;58.47;;;23.80;;
20026;SDS011;10174;42.688;23.344;2023-03-05T09:33:05;54.40;;;23.77;;
20026;SDS011;10174;42.688;23.344;2023-03-05T09:35:33;53.90;;;22.65;;
20026;SDS011;10174;42.688;23.344;2023-03-05T09:37:59;49.65;;;22.52;;
20026;SDS011;10174;42.688;23.344;2023-03-05T09:40:24;49.30;;;20.90;;
20026;SDS011;10174;42.688;23.344;2023-03-05T09:43:00;48.92;;;21.35;;
20026;SDS011;10174;42.688;23.344;2023-03-05T09:56:15;50.60;;;21.13;;
20026;SDS011;10174;42.688;23.344;2023-03-05T09:58:54;50.67;;;20.33;;
20026;SDS011;10174;42.688;23.344;2023-03-05T10:01:33;47.97;;;20.83;;
20026;SDS011;10174;42.688;23.344;2023-03-05T10:04:05;45.13;;;20.98;;
20026;SDS011;10174;42.688;23.344;2023-03-05T10:06:34;47.03;;;20.38;;
20026;SDS011;10174;42.688;23.344;2023-03-05T10:09:06;43.42;;;19.73;;
20026;SDS011;10174;42.688;23.344;2023-03-05T10:11:43;43.40;;;20.20;;
20026;SDS011;10174;42.688;23.344;2023-03-05T10:14:21;44.40;;;20.48;;
20026;SDS011;10174;42.688;23.344;2023-03-05T10:22:29;46.17;;;20.38;;
20026;SDS011;10174;42.688;23.344;2023-03-05T10:25:13;40.50;;;19.02;;
20026;SDS011;10174;42.688;23.344;2023-03-05T10:27:48;35.72;;;18.65;;
20026;SDS011;10174;42.688;23.344;2023-03-05T10:30:19;35.50;;;18.23;;
20026;SDS011;10174;42.688;23.344;2023-03-05T10:44:16;34.70;;;17.48;;
20026;SDS011;10174;42.688;23.344;2023-03-05T10:46:47;32.95;;;16.15;;
20026;SDS011;10174;42.688;23.344;2023-03-05T10:49:25;39.20;;;17.25;;
20026;SDS011;10174;42.688;23.344;2023-03-05T10:52:34;37.10;;;17.75;;
20026;SDS011;10174;42.688;23.344;2023-03-05T10:54:52;35.50;;;17.23;;
20026;SDS011;10174;42.688;23.344;2023-03-05T11:02:16;32.33;;;16.45;;
20026;SDS011;10174;42.688;23.344;2023-03-05T11:04:42;34.08;;;16.35;;
20026;SDS011;10174;42.688;23.344;2023-03-05T11:09:40;34.33;;;17.58;;
20026;SDS011;10174;42.688;23.344;2023-03-05T11:17:39;32.25;;;16.58;;
20026;SDS011;10174;42.688;23.344;2023-03-05T11:23:07;33.92;;;15.38;;
20026;SDS011;10174;42.688;23.344;2023-03-05T11:25:50;31.25;;;15.85;;
20026;SDS011;10174;42.688;23.344;2023-03-05T11:33:39;35.67;;;15.93;;
20026;SDS011;10174;42.688;23.344;2023-03-05T11:36:26;34.70;;;16.42;;
20026;SDS011;10174;42.688;23.344;2023-03-05T11:38:57;36.33;;;17.67;;
20026;SDS011;10174;42.688;23.344;2023-03-05T11:41:38;33.78;;;16.35;;
20026;SDS011;10174;42.688;23.344;2023-03-05T11:44:28;33.00;;;16.50;;
20026;SDS011;10174;42.688;23.344;2023-03-05T11:47:03;35.17;;;16.17;;
20026;SDS011;10174;42.688;23.344;2023-03-05T11:49:51;35.85;;;16.08;;
20026;SDS011;10174;42.688;23.344;2023-03-05T11:52:23;29.13;;;15.00;;
20026;SDS011;10174;42.688;23.344;2023-03-05T11:55:01;29.92;;;15.85;;
20026;SDS011;10174;42.688;23.344;2023-03-05T11:57:43;32.20;;;15.02;;
20026;SDS011;10174;42.688;23.344;2023-03-05T12:05:19;28.00;;;14.18;;
20026;SDS011;10174;42.688;23.344;2023-03-05T12:07:46;29.73;;;15.45;;
20026;SDS011;10174;42.688;23.344;2023-03-05T12:10:18;31.33;;;15.73;;
20026;SDS011;10174;42.688;23.344;2023-03-05T12:13:01;32.67;;;17.40;;
20026;SDS011;10174;42.688;23.344;2023-03-05T12:18:36;33.50;;;15.65;;
20026;SDS011;10174;42.688;23.344;2023-03-05T12:21:26;34.60;;;15.55;;
20026;SDS011;10174;42.688;23.344;2023-03-05T12:23:58;34.53;;;15.25;;
20026;SDS011;10174;42.688;23.344;2023-03-05T12:31:55;29.35;;;15.10;;
20026;SDS011;10174;42.688;23.344;2023-03-05T12:34:34;29.33;;;15.15;;
20026;SDS011;10174;42.688;23.344;2023-03-05T12:53:13;35.08;;;14.82;;
20026;SDS011;10174;42.688;23.344;2023-03-05T12:58:44;31.42;;;15.32;;
20026;SDS011;10174;42.688;23.344;2023-03-05T13:01:15;34.53;;;15.43;;
20026;SDS011;10174;42.688;23.344;2023-03-05T13:03:59;34.88;;;15.48;;
20026;SDS011;10174;42.688;23.344;2023-03-05T13:06:32;35.10;;;14.13;;
20026;SDS011;10174;42.688;23.344;2023-03-05T13:08:59;31.23;;;14.30;;
20026;SDS011;10174;42.688;23.344;2023-03-05T13:11:28;34.30;;;15.93;;
20026;SDS011;10174;42.688;23.344;2023-03-05T13:13:58;34.15;;;15.70;;
20026;SDS011;10174;42.688;23.344;2023-03-05T13:16:26;32.95;;;14.82;;
20026;SDS011;10174;42.688;23.344;2023-03-05T13:18:54;36.65;;;15.88;;
20026;SDS011;10174;42.688;23.344;2023-03-05T13:21:24;31.90;;;14.65;;
20026;SDS011;10174;42.688;23.344;2023-03-05T13:23:52;27.98;;;13.93;;
20026;SDS011;10174;42.688;23.344;2023-03-05T13:26:24;33.15;;;14.57;;
20026;SDS011;10174;42.688;23.344;2023-03-05T13:34:19;29.30;;;14.13;;
20026;SDS011;10174;42.688;23.344;2023-03-05T13:36:49;32.92;;;15.02;;
20026;SDS011;10174;42.688;23.344;2023-03-05T13:39:19;29.52;;;13.88;;
20026;SDS011;10174;42.688;23.344;2023-03-05T13:42:06;34.80;;;14.63;;
20026;SDS011;10174;42.688;23.344;2023-03-05T13:44:41;36.95;;;15.88;;
20026;SDS011;10174;42.688;23.344;2023-03-05T13:49:42;35.85;;;16.23;;
20026;SDS011;10174;42.688;23.344;2023-03-05T13:52:08;29.67;;;13.88;;
20026;SDS011;10174;42.688;23.344;2023-03-05T13:54:34;30.73;;;15.60;;
20026;SDS011;10174;42.688;23.344;2023-03-05T13:57:01;33.13;;;14.77;;
20026;SDS011;10174;42.688;23.344;2023-03-05T13:59:30;34.92;;;15.75;;
20026;SDS011;10174;42.688;23.344;2023-03-05T14:02:19;39.00;;;17.20;;
20026;SDS011;10174;42.688;23.344;2023-03-05T14:04:45;54.63;;;22.20;;
20026;SDS011;10174;42.688;23.344;2023-03-05T14:07:21;41.50;;;18.67;;
20026;SDS011;10174;42.688;23.344;2023-03-05T14:09:50;36.00;;;17.48;;
20026;SDS011;10174;42.688;23.344;2023-03-05T14:12:31;38.25;;;16.00;;
20026;SDS011;10174;42.688;23.344;2023-03-05T14:15:02;31.75;;;16.45;;
20026;SDS011;10174;42.688;23.344;2023-03-05T14:17:43;34.55;;;16.33;;
20026;SDS011;10174;42.688;23.344;2023-03-05T14:22:38;40.55;;;17.67;;
20026;SDS011;10174;42.688;23.344;2023-03-05T14:25:05;36.53;;;17.25;;
20026;SDS011;10174;42.688;23.344;2023-03-05T14:27:49;37.28;;;17.55;;
20026;SDS011;10174;42.688;23.344;2023-03-05T14:30:15;38.15;;;17.30;;
20026;SDS011;10174;42.688;23.344;2023-03-05T14:32:43;39.90;;;17.70;;
20026;SDS011;10174;42.688;23.344;2023-03-05T14:35:17;40.08;;;18.27;;
20026;SDS011;10174;42.688;23.344;2023-03-05T14:37:45;38.25;;;17.67;;
20026;SDS011;10174;42.688;23.344;2023-03-05T14:45:29;34.90;;;17.90;;
20026;SDS011;10174;42.688;23.344;2023-03-05T14:47:58;41.42;;;17.67;;
20026;SDS011;10174;42.688;23.344;2023-03-05T14:50:26;39.03;;;17.02;;
20026;SDS011;10174;42.688;23.344;2023-03-05T14:53:00;36.35;;;16.60;;
20026;SDS011;10174;42.688;23.344;2023-03-05T14:55:28;41.70;;;17.00;;
20026;SDS011;10174;42.688;23.344;2023-03-05T14:58:18;37.97;;;17.83;;
20026;SDS011;10174;42.688;23.344;2023-03-05T15:00:45;36.15;;;18.38;;
20026;SDS011;10174;42.688;23.344;2023-03-05T15:03:13;39.95;;;17.70;;
20026;SDS011;10174;42.688;23.344;2023-03-05T15:05:40;35.10;;;17.10;;
20026;SDS011;10174;42.688;23.344;2023-03-05T15:08:09;37.45;;;17.42;;
20026;SDS011;10174;42.688;23.344;2023-03-05T15:10:37;39.33;;;18.20;;
20026;SDS011;10174;42.688;23.344;2023-03-05T15:13:03;39.15;;;18.50;;
20026;SDS011;10174;42.688;23.344;2023-03-05T15:15:28;43.80;;;18.38;;
20026;SDS011;10174;42.688;23.344;2023-03-05T15:17:54;38.80;;;17.27;;
20026;SDS011;10174;42.688;23.344;2023-03-05T15:20:21;34.92;;;16.88;;
20026;SDS011;10174;42.688;23.344;2023-03-05T15:22:51;41.08;;;18.80;;
20026;SDS011;10174;42.688;23.344;2023-03-05T15:25:18;40.13;;;19.10;;
20026;SDS011;10174;42.688;23.344;2023-03-05T15:27:44;41.85;;;18.83;;
20026;SDS011;10174;42.688;23.344;2023-03-05T15:30:13;40.97;;;18.50;;
20026;SDS011;10174;42.688;23.344;2023-03-05T15:32:46;41.95;;;19.70;;
20026;SDS011;10174;42.688;23.344;2023-03-05T15:35:11;45.72;;;18.38;;
20026;SDS011;10174;42.688;23.344;2023-03-05T15:37:37;38.08;;;17.30;;
20026;SDS011;10174;42.688;23.344;2023-03-05T15:40:02;37.53;;;17.40;;
20026;SDS011;10174;42.688;23.344;2023-03-05T15:42:28;39.33;;;16.92;;
20026;SDS011;10174;42.688;23.344;2023-03-05T15:44:53;35.00;;;15.63;;
20026;SDS011;10174;42.688;23.344;2023-03-05T15:47:19;35.45;;;16.63;;
20026;SDS011;10174;42.688;23.344;2023-03-05T15:49:44;36.20;;;16.08;;
20026;SDS011;10174;42.688;23.344;2023-03-05T15:52:09;39.58;;;17.10;;
20026;SDS011;10174;42.688;23.344;2023-03-05T15:54:35;38.03;;;16.67;;